Time;durP1;ratioP1;P1;durP2;ratioP2;P2;SDS_P1;SDS_P2;PMS_P1;PMS_P2;Temp;Humidity;BMP_temperature;BMP_pressure;BME280_temperature;BME280_humidity;BME280_pressure;Samples;Min_cycle;Max_cycle;Signal;HPM_P1;HPM_P2
2023/07/17 00:02:07;;;;;;;;;;;;;;;22.93;82.50;98898.84;4989946;28;20530;-94
2023/07/17 00:04:34;;;;;;;19.20;5.72;;;;;;;22.76;81.92;98882.97;5016574;28;19925;-95
2023/07/17 00:07:02;;;;;;;14.10;5.80;;;;;;;22.63;82.01;98864.06;4984882;28;20038;-96
2023/07/17 00:09:35;;;;;;;12.25;6.25;;;;;;;22.63;81.60;98865.91;4991955;28;20069;-94
2023/07/17 00:12:03;;;;;;;11.77;5.85;;;;;;;22.71;82.41;98893.31;5004234;28;20500;-94
2023/07/17 00:14:29;;;;;;;16.20;6.57;;;;;;;22.68;83.49;98891.66;5003671;28;20137;-95
2023/07/17 00:16:55;;;;;;;13.23;6.47;;;;;;;22.63;84.87;98883.03;5003412;28;20050;-94
2023/07/17 00:19:21;;;;;;;12.45;5.90;;;;;;;22.55;84.49;98886.34;5003802;28;20046;-95
2023/07/17 00:21:46;;;;;;;11.20;6.47;;;;;;;22.36;84.90;98867.00;5017678;28;20140;-94
2023/07/17 00:24:13;;;;;;;17.73;6.70;;;;;;;22.40;86.98;98875.75;5003843;28;20069;-95
2023/07/17 00:26:38;;;;;;;15.07;7.00;;;;;;;22.39;86.44;98890.28;5004139;28;20042;-94
2023/07/17 00:29:23;;;;;;;18.73;7.18;;;;;;;22.38;87.57;98884.00;5043917;28;20054;-94
2023/07/17 00:31:49;;;;;;;16.70;6.97;;;;;;;22.32;87.72;98876.31;5015883;28;20046;-94
2023/07/17 00:34:15;;;;;;;15.07;7.00;;;;;;;22.31;88.86;98886.28;5003881;28;20049;-94
2023/07/17 00:36:41;;;;;;;14.75;7.00;;;;;;;22.12;88.85;98862.38;5004039;28;20414;-94
2023/07/17 00:39:07;;;;;;;10.98;6.80;;;;;;;22.27;89.03;98892.94;5002791;28;20050;-93
2023/07/17 00:41:33;;;;;;;13.63;6.72;;;;;;;22.13;88.70;98876.78;5003585;28;20979;-94
2023/07/17 00:43:58;;;;;;;12.98;6.70;;;;;;;22.16;88.43;98884.66;5003448;28;20088;-94
2023/07/17 00:46:26;;;;;;;13.73;7.45;;;;;;;22.03;90.44;98863.03;5012769;28;20462;-95
2023/07/17 00:48:52;;;;;;;16.55;8.18;;;;;;;22.17;93.87;98897.25;5010909;28;20069;-95
2023/07/17 00:51:18;;;;;;;16.83;7.22;;;;;;;21.94;94.67;98864.56;5003429;28;20046;-94
2023/07/17 00:53:44;;;;;;;20.08;8.95;;;;;;;22.06;96.53;98883.63;5004198;28;20056;-96
2023/07/17 00:56:11;;;;;;;14.98;7.32;;;;;;;22.05;98.82;98892.69;5003018;28;20149;-94
2023/07/17 00:58:45;;;;;;;21.15;7.60;;;;;;;21.87;97.34;98863.28;5009008;28;20041;-93
2023/07/17 01:01:14;;;;;;;11.57;6.90;;;;;;;21.73;99.99;98861.56;5002198;28;20132;-93
2023/07/17 01:03:42;;;;;;;19.58;8.38;;;;;;;21.64;99.48;98848.69;5004852;28;20033;-93
2023/07/17 01:06:08;;;;;;;15.57;7.50;;;;;;;21.77;99.82;98873.03;5003201;28;20431;-93
2023/07/17 01:08:40;;;;;;;16.88;6.65;;;;;;;21.73;100.00;98858.88;5018553;28;20146;-94
2023/07/17 01:11:13;;;;;;;22.35;6.90;;;;;;;21.83;99.53;98872.59;5001938;28;20046;-95
2023/07/17 01:13:53;;;;;;;17.98;6.95;;;;;;;21.89;99.63;98877.56;5002045;28;20054;-94
2023/07/17 01:16:19;;;;;;;19.52;7.43;;;;;;;21.78;100.00;98872.06;5014094;28;20037;-95
2023/07/17 01:18:47;;;;;;;17.88;7.43;;;;;;;21.75;100.00;98872.25;5008246;28;20050;-94
2023/07/17 01:21:26;;;;;;;17.00;7.10;;;;;;;21.53;nan;98844.06;5017456;28;20049;-93
2023/07/17 01:23:56;;;;;;;23.75;8.57;;;;;;;21.53;100.00;98846.75;5003638;28;20050;-94
2023/07/17 01:26:22;;;;;;;12.25;7.25;;;;;;;21.51;100.00;98854.13;5034700;28;20137;-95
2023/07/17 01:29:04;;;;;;;14.27;7.45;;;;;;;21.39;100.00;98844.13;5015913;28;20053;-95
2023/07/17 01:31:32;;;;;;;18.58;8.50;;;;;;;21.43;100.00;98850.22;5002792;28;20046;-95
2023/07/17 01:34:04;;;;;;;23.98;8.10;;;;;;;21.44;100.00;98862.75;5014548;28;20521;-93
2023/07/17 01:36:37;;;;;;;15.82;7.68;;;;;;;21.45;100.00;98854.53;5042352;28;20053;-93
2023/07/17 01:39:10;;;;;;;17.98;7.75;;;;;;;21.33;100.00;98845.41;5015357;28;20049;-94
2023/07/17 01:41:36;;;;;;;20.13;7.93;;;;;;;21.20;100.00;98831.00;5002110;28;20053;-93
2023/07/17 01:44:03;;;;;;;17.30;8.25;;;;;;;21.29;100.00;98851.13;5018221;28;20041;-94
2023/07/17 01:46:32;;;;;;;32.88;7.78;;;;;;;21.24;100.00;98840.66;5017390;28;20050;-95
2023/07/17 01:49:05;;;;;;;17.52;7.60;;;;;;;21.37;100.00;98850.63;5010406;28;20049;-94
2023/07/17 01:51:31;;;;;;;18.30;7.13;;;;;;;21.32;100.00;98843.69;4981678;28;20141;-95
2023/07/17 01:53:57;;;;;;;13.82;7.40;;;;;;;21.26;100.00;98829.72;5005257;28;20049;-93
2023/07/17 01:56:28;;;;;;;22.42;8.48;;;;;;;21.13;100.00;98810.78;5017854;28;20041;-95
2023/07/17 01:58:55;;;;;;;19.70;7.30;;;;;;;21.12;100.00;98818.03;5001455;28;20053;-95
2023/07/17 02:01:54;;;;;;;14.75;7.75;;;;;;;21.23;100.00;98846.16;5021188;28;20406;-95
2023/07/17 02:05:01;;;;;;;16.10;7.82;;;;;;;21.21;100.00;98842.69;5021125;28;20045;-95
2023/07/17 02:07:52;;;;;;;23.92;8.43;;;;;;;21.31;100.00;98860.00;5020432;28;20049;-95
2023/07/17 02:10:50;;;;;;;18.33;7.97;;;;;;;21.17;100.00;98835.78;5002810;28;20499;-94
2023/07/17 02:13:17;;;;;;;17.88;8.10;;;;;;;21.12;100.00;98836.09;4999163;28;20049;-95
2023/07/17 02:16:19;;;;;;;23.92;8.48;;;;;;;21.16;100.00;98845.72;4999579;28;20053;-94
2023/07/17 02:19:11;;;;;;;27.58;8.38;;;;;;;21.26;100.00;98856.78;4977038;28;20410;-95
2023/07/17 02:21:43;;;;;;;23.55;8.73;;;;;;;21.15;100.00;98848.53;5016823;28;20042;-95
2023/07/17 02:24:11;;;;;;;17.50;7.38;;;;;;;21.07;100.00;98844.50;5002201;28;20040;-95
2023/07/17 02:26:37;;;;;;;21.60;8.32;;;;;;;21.10;100.00;98843.44;5002447;28;20122;-95
2023/07/17 02:29:05;;;;;;;17.65;7.88;;;;;;;21.05;100.00;98849.16;5018422;28;20128;-94
2023/07/17 02:31:31;;;;;;;16.30;7.93;;;;;;;21.00;100.00;98848.63;5004604;28;20419;-95
2023/07/17 02:33:57;;;;;;;18.13;8.48;;;;;;;20.87;100.00;98829.66;5001654;28;20046;-95
2023/07/17 02:36:23;;;;;;;19.23;8.90;;;;;;;20.92;100.00;98849.13;5001958;28;20042;-95
2023/07/17 02:38:48;;;;;;;22.02;8.90;;;;;;;20.76;100.00;98829.53;5001337;28;20494;-95
2023/07/17 02:41:15;;;;;;;21.98;8.73;;;;;;;20.88;100.00;98844.94;5017615;28;20423;-94
2023/07/17 02:43:42;;;;;;;22.75;8.35;;;;;;;20.84;100.00;98856.94;5012253;28;20152;-95
2023/07/17 02:46:09;;;;;;;18.13;8.95;;;;;;;20.75;100.00;98854.81;5002608;28;20077;-95
2023/07/17 02:48:35;;;;;;;17.73;7.88;;;;;;;20.79;100.00;98871.69;5005941;28;20054;-95
2023/07/17 02:51:01;;;;;;;20.63;8.75;;;;;;;20.63;100.00;98844.84;5004236;28;20052;-95
2023/07/17 02:53:27;;;;;;;17.27;8.32;;;;;;;20.75;100.00;98867.47;5002909;28;20050;-94
2023/07/17 02:55:56;;;;;;;20.58;8.27;;;;;;;20.61;100.00;98846.78;5018960;28;20053;-93
2023/07/17 02:58:22;;;;;;;18.08;8.20;;;;;;;20.66;100.00;98858.16;5008729;28;20057;-95
2023/07/17 03:00:47;;;;;;;24.13;9.07;;;;;;;20.67;100.00;98871.56;5010979;28;20038;-96
2023/07/17 03:03:15;;;;;;;18.13;8.82;;;;;;;20.53;100.00;98848.13;5018832;28;20034;-95
2023/07/17 03:05:41;;;;;;;31.58;9.63;;;;;;;20.51;100.00;98858.19;5050535;28;20048;-96
2023/07/17 03:08:06;;;;;;;21.15;8.82;;;;;;;20.45;100.00;98857.69;5011305;28;20042;-95
2023/07/17 03:10:33;;;;;;;21.65;9.63;;;;;;;20.52;100.00;98877.97;5001174;28;20049;-94
2023/07/17 03:12:58;;;;;;;18.73;9.65;;;;;;;20.52;100.00;98883.38;5002908;28;20255;-94
2023/07/17 03:15:24;;;;;;;19.02;8.95;;;;;;;20.48;100.00;98881.81;5003618;28;20046;-94
2023/07/17 03:17:50;;;;;;;19.83;8.88;;;;;;;20.41;100.00;98894.88;5002381;28;20046;-95
2023/07/17 03:20:18;;;;;;;25.48;8.85;;;;;;;20.38;100.00;98896.91;5006535;28;20038;-93
2023/07/17 03:22:44;;;;;;;22.37;9.63;;;;;;;20.35;100.00;98895.28;5003042;28;20058;-95
2023/07/17 03:25:10;;;;;;;25.77;9.40;;;;;;;20.21;100.00;98873.69;5018949;28;20058;-96
2023/07/17 03:27:36;;;;;;;24.52;8.63;;;;;;;20.14;100.00;98870.50;5006859;28;20038;-95
2023/07/17 03:30:04;;;;;;;21.48;8.90;;;;;;;20.22;100.00;98892.50;5010506;28;20057;-94
2023/07/17 03:32:32;;;;;;;26.65;9.25;;;;;;;20.08;100.00;98879.00;5011879;28;20053;-94
2023/07/17 03:34:58;;;;;;;22.30;9.15;;;;;;;19.99;100.00;98876.91;5014903;28;20048;-96
2023/07/17 03:37:25;;;;;;;18.38;8.82;;;;;;;20.16;100.00;98906.38;5037987;28;20093;-94
2023/07/17 03:39:51;;;;;;;23.65;9.75;;;;;;;20.15;100.00;98904.66;5018951;28;20050;-95
2023/07/17 03:42:17;;;;;;;24.52;9.60;;;;;;;20.14;100.00;98910.16;5008040;28;20408;-94
2023/07/17 03:44:43;;;;;;;22.60;9.05;;;;;;;20.08;100.00;98889.81;5021421;28;20030;-93
2023/07/17 03:47:09;;;;;;;24.20;9.75;;;;;;;20.17;100.00;98907.25;5012789;28;20057;-95
2023/07/17 03:49:35;;;;;;;24.80;9.90;;;;;;;20.08;100.00;98898.78;5006368;28;20050;-94
2023/07/17 03:52:01;;;;;;;25.08;9.68;;;;;;;20.07;100.00;98894.34;5021358;28;20560;-94
2023/07/17 03:54:29;;;;;;;25.48;9.77;;;;;;;20.02;100.00;98874.03;5005752;28;20050;-94
2023/07/17 03:56:54;;;;;;;20.15;9.27;;;;;;;20.05;100.00;98888.16;5020802;28;20045;-94
2023/07/17 03:59:22;;;;;;;23.23;10.07;;;;;;;20.14;100.00;98904.75;5022726;28;20065;-95
2023/07/17 04:01:49;;;;;;;24.50;10.38;;;;;;;20.08;100.00;98893.41;5022213;28;20077;-94
2023/07/17 04:04:14;;;;;;;24.80;9.68;;;;;;;20.20;100.00;98910.63;5013026;28;20144;-94
2023/07/17 04:06:40;;;;;;;20.63;9.80;;;;;;;20.20;100.00;98912.47;5006347;28;20073;-95
2023/07/17 04:09:06;;;;;;;19.85;9.82;;;;;;;20.30;100.00;98922.56;5001690;28;20046;-94
2023/07/17 04:11:33;;;;;;;19.48;9.90;;;;;;;20.23;100.00;98910.44;4994011;28;20046;-94
2023/07/17 04:13:59;;;;;;;29.80;10.35;;;;;;;20.17;100.00;98897.34;4998484;28;20034;-94
2023/07/17 04:16:26;;;;;;;28.83;10.52;;;;;;;20.26;100.00;98909.38;4985437;28;20147;-95
2023/07/17 04:18:52;;;;;;;25.80;9.88;;;;;;;20.26;100.00;98909.38;4985925;28;20054;-95
2023/07/17 04:21:18;;;;;;;25.60;9.27;;;;;;;20.18;100.00;98896.34;4986118;28;20039;-95
2023/07/17 04:23:48;;;;;;;22.85;10.38;;;;;;;20.21;100.00;98890.78;5003121;28;20041;-93
2023/07/17 04:26:14;;;;;;;23.65;10.18;;;;;;;20.35;100.00;98907.91;4988557;28;20098;-95
2023/07/17 04:28:42;;;;;;;36.58;11.23;;;;;;;20.31;100.00;98891.88;4986035;28;20078;-95
2023/07/17 04:31:08;;;;;;;21.55;8.90;;;;;;;20.45;100.00;98912.63;4999776;28;20492;-94
2023/07/17 04:33:33;;;;;;;23.88;9.90;;;;;;;20.48;100.00;98912.41;4997166;28;20105;-94
2023/07/17 04:35:59;;;;;;;24.42;10.85;;;;;;;20.44;100.00;98905.47;4988597;28;20066;-93
2023/07/17 04:38:25;;;;;;;26.08;10.48;;;;;;;20.60;100.00;98929.69;5010955;28;20056;-94
2023/07/17 04:40:51;;;;;;;22.90;10.18;;;;;;;20.65;100.00;98932.94;4994027;28;20561;-93
2023/07/17 04:43:17;;;;;;;23.95;9.88;;;;;;;20.75;100.00;98943.13;4997725;28;20042;-94
2023/07/17 04:45:44;;;;;;;21.92;10.05;;;;;;;20.88;100.00;98949.47;5001100;28;20057;-94
2023/07/17 04:48:10;;;;;;;23.58;10.45;;;;;;;20.79;100.00;98918.50;4997704;28;20050;-93
2023/07/17 04:50:36;;;;;;;28.23;10.25;;;;;;;20.92;100.00;98924.81;4986498;28;20041;-93
2023/07/17 04:53:02;;;;;;;23.95;9.18;;;;;;;21.14;100.00;98945.00;4999859;28;20050;-95
2023/07/17 04:55:28;;;;;;;22.05;9.90;;;;;;;21.18;100.00;98934.84;4990947;28;20551;-95
2023/07/17 04:57:54;;;;;;;24.88;10.23;;;;;;;21.34;100.00;98946.38;4985047;28;20392;-96
2023/07/17 05:00:20;;;;;;;25.58;10.57;;;;;;;21.41;100.00;98953.13;4986391;28;20140;-95
2023/07/17 05:02:47;;;;;;;26.73;9.93;;;;;;;21.52;100.00;98945.13;4986094;28;20100;-95
2023/07/17 05:05:14;;;;;;;26.42;10.55;;;;;;;21.65;100.00;98952.41;5002348;28;20053;-94
2023/07/17 05:07:40;;;;;;;31.88;10.95;;;;;;;21.78;100.00;98958.69;4984486;28;20054;-94
2023/07/17 05:10:10;;;;;;;27.83;10.82;;;;;;;22.16;100.00;98957.78;4998275;28;20100;-95
2023/07/17 05:12:37;;;;;;;23.90;9.88;;;;;;;22.59;100.00;98962.84;5003770;28;20051;-95
2023/07/17 05:15:03;;;;;;;30.52;9.65;;;;;;;22.90;100.00;98944.28;5005069;28;20518;-94
2023/07/17 05:17:29;;;;;;;25.80;9.43;;;;;;;23.35;100.00;98952.66;5005212;28;20054;-94
2023/07/17 05:19:57;;;;;;;24.83;10.52;;;;;;;23.58;100.00;98950.91;5004903;28;20117;-94
2023/07/17 05:22:23;;;;;;;27.17;9.75;;;;;;;23.90;100.00;98959.25;5004359;28;20058;-95
2023/07/17 05:24:49;;;;;;;23.50;9.52;;;;;;;24.16;100.00;98950.91;5004821;28;20483;-95
2023/07/17 05:27:14;;;;;;;21.85;9.48;;;;;;;24.54;99.64;98965.97;5020724;28;20037;-94
2023/07/17 05:29:40;;;;;;;20.83;10.10;;;;;;;24.56;99.53;98969.44;5020249;28;20054;-95
2023/07/17 05:32:07;;;;;;;24.60;10.07;;;;;;;24.68;97.32;98962.09;5008887;28;20101;-93
2023/07/17 05:34:32;;;;;;;22.30;9.63;;;;;;;24.75;96.76;98957.91;4984090;28;20046;-94
2023/07/17 05:37:00;;;;;;;30.15;10.10;;;;;;;25.20;94.81;98985.88;4998047;28;20088;-94
2023/07/17 05:39:27;;;;;;;27.05;9.88;;;;;;;25.35;93.75;98977.41;5006736;28;20523;-94
2023/07/17 05:41:53;;;;;;;23.13;9.45;;;;;;;25.39;92.90;98974.31;5006015;28;20046;-93
2023/07/17 05:44:19;;;;;;;22.98;9.45;;;;;;;25.49;92.05;98959.91;5006716;28;20046;-95
2023/07/17 05:46:45;;;;;;;20.45;9.27;;;;;;;25.56;90.89;98972.84;5006469;28;20117;-94
2023/07/17 05:49:11;;;;;;;22.85;9.38;;;;;;;25.55;91.24;98962.97;4987486;28;20050;-95
2023/07/17 05:51:37;;;;;;;25.63;10.45;;;;;;;25.71;90.93;98977.97;5002526;28;20054;-94
2023/07/17 05:54:04;;;;;;;24.95;10.10;;;;;;;25.74;90.06;98984.03;4987525;28;20561;-93
2023/07/17 05:56:30;;;;;;;23.27;8.80;;;;;;;25.68;90.42;98980.97;4986388;28;20050;-95
2023/07/17 05:58:56;;;;;;;26.45;10.35;;;;;;;25.75;91.18;98969.41;4987035;28;20385;-95
2023/07/17 06:01:22;;;;;;;22.50;9.35;;;;;;;25.96;90.36;98993.97;4988402;28;20062;-94
2023/07/17 06:03:49;;;;;;;20.30;8.80;;;;;;;25.97;91.94;98979.31;4986529;28;20042;-95
2023/07/17 06:06:15;;;;;;;23.15;10.55;;;;;;;26.17;88.75;98984.88;5004086;28;20055;-95
2023/07/17 06:08:41;;;;;;;27.23;11.20;;;;;;;26.30;87.61;98976.47;4989646;28;20050;-94
2023/07/17 06:11:08;;;;;;;26.02;10.65;;;;;;;26.49;87.54;98987.47;5005531;28;20502;-93
2023/07/17 06:13:34;;;;;;;25.47;10.73;;;;;;;26.47;87.03;98969.53;5006116;28;20084;-95
2023/07/17 06:16:00;;;;;;;26.40;9.95;;;;;;;26.59;86.00;98973.94;5005826;28;20320;-94
2023/07/17 06:18:26;;;;;;;22.17;9.40;;;;;;;26.63;87.46;98989.88;5004552;28;20104;-96
2023/07/17 06:20:52;;;;;;;23.90;9.23;;;;;;;26.60;86.13;98981.09;5004522;28;20046;-94
2023/07/17 06:23:18;;;;;;;22.83;10.15;;;;;;;26.75;85.94;98995.22;5007289;28;20140;-94
2023/07/17 06:25:46;;;;;;;23.20;9.27;;;;;;;26.59;85.97;98977.50;5013970;28;20050;-95
2023/07/17 06:28:14;;;;;;;20.80;10.57;;;;;;;25.97;89.14;99003.84;5007632;28;20121;-95
2023/07/17 06:30:40;;;;;;;21.77;10.00;;;;;;;25.88;89.83;98988.31;5001918;28;20494;-94
2023/07/17 06:33:06;;;;;;;23.48;9.38;;;;;;;26.39;87.78;98990.19;5000721;28;20283;-94
2023/07/17 06:35:32;;;;;;;29.90;10.02;;;;;;;26.59;86.91;98980.22;5021689;28;20041;-94
2023/07/17 06:37:58;;;;;;;24.05;9.43;;;;;;;26.91;85.50;98997.41;5022063;28;20060;-95
2023/07/17 06:40:23;;;;;;;22.75;9.40;;;;;;;26.92;82.30;98980.03;5023278;28;20033;-95
2023/07/17 06:42:49;;;;;;;22.70;9.45;;;;;;;27.25;82.32;98998.78;5025252;28;20084;-96
2023/07/17 06:45:17;;;;;;;22.88;9.38;;;;;;;27.31;79.73;98993.78;5025220;28;20498;-96
2023/07/17 06:47:46;;;;;;;20.73;8.77;;;;;;;26.74;83.92;98985.28;5027803;28;20144;-96
2023/07/17 06:50:12;;;;;;;19.88;9.00;;;;;;;26.63;83.43;98983.53;5026341;28;20049;-95
2023/07/17 06:52:38;;;;;;;20.95;9.43;;;;;;;26.47;83.77;98986.75;5026034;28;20046;-95
2023/07/17 06:55:06;;;;;;;22.27;9.23;;;;;;;26.63;83.12;99010.81;5057133;28;20045;-94
2023/07/17 06:57:32;;;;;;;23.85;9.50;;;;;;;26.40;84.96;98982.84;5025372;28;20050;-95
2023/07/17 06:59:58;;;;;;;25.73;10.07;;;;;;;26.70;84.16;98973.81;5045194;28;20045;-95
2023/07/17 07:02:26;;;;;;;16.73;9.45;;;;;;;26.70;80.72;98986.59;5021020;28;20052;-95
2023/07/17 07:04:52;;;;;;;29.35;9.70;;;;;;;26.77;78.77;98987.75;5002616;28;20050;-95
2023/07/17 07:07:18;;;;;;;21.05;10.07;;;;;;;26.51;80.27;98966.38;5002044;28;20029;-95
2023/07/17 07:09:44;;;;;;;17.67;9.13;;;;;;;26.99;74.45;98978.47;5003259;28;20053;-94
2023/07/17 07:12:10;;;;;;;18.67;8.48;;;;;;;27.37;72.89;98972.22;5033073;28;20045;-94
2023/07/17 07:14:35;;;;;;;26.83;10.88;;;;;;;27.58;72.49;98988.44;5051397;28;20050;-96
2023/07/17 07:17:02;;;;;;;21.73;8.93;;;;;;;27.73;70.08;98990.75;5005854;28;20434;-95
2023/07/17 07:19:29;;;;;;;19.48;9.68;;;;;;;27.86;68.53;98994.06;5042894;28;20054;-95
2023/07/17 07:21:55;;;;;;;19.00;8.45;;;;;;;28.26;68.54;98992.97;5009783;28;20451;-95
2023/07/17 07:24:21;;;;;;;26.15;9.77;;;;;;;28.49;67.24;98982.53;5046539;28;20053;-95
2023/07/17 07:26:47;;;;;;;25.30;9.23;;;;;;;28.93;66.48;98995.56;5007364;28;20053;-95
2023/07/17 07:29:13;;;;;;;20.45;10.10;;;;;;;29.20;63.78;98998.31;5021268;28;20061;-95
2023/07/17 07:31:40;;;;;;;23.75;11.15;;;;;;;29.31;62.68;98979.94;5020238;28;20048;-96
2023/07/17 07:34:06;;;;;;;24.25;9.63;;;;;;;29.15;61.58;98975.13;5017132;28;20049;-95
2023/07/17 07:36:33;;;;;;;18.42;9.02;;;;;;;29.26;61.74;98977.66;5005873;28;20057;-95
2023/07/17 07:38:59;;;;;;;22.00;9.30;;;;;;;29.32;61.45;98981.63;5008551;28;20075;-94
2023/07/17 07:41:25;;;;;;;20.80;8.93;;;;;;;29.29;61.53;98964.50;5008727;28;20133;-95
2023/07/17 07:43:51;;;;;;;25.55;10.38;;;;;;;29.37;61.44;98960.13;5016930;28;20050;-95
2023/07/17 07:46:17;;;;;;;20.17;9.98;;;;;;;29.00;59.96;98963.84;5020734;28;20076;-95
2023/07/17 07:48:43;;;;;;;18.95;9.55;;;;;;;29.03;63.19;98979.94;5026189;28;20045;-95
2023/07/17 07:51:09;;;;;;;20.90;9.50;;;;;;;29.20;61.82;98991.97;5010358;28;20072;-93
2023/07/17 07:53:37;;;;;;;18.92;10.02;;;;;;;29.40;62.02;98965.28;5008336;28;20030;-94
2023/07/17 07:56:03;;;;;;;23.20;9.03;;;;;;;29.55;60.31;98952.75;5010127;28;20410;-95
2023/07/17 07:58:29;;;;;;;25.55;10.55;;;;;;;29.74;59.34;98956.38;5006620;28;20799;-94
2023/07/17 08:00:55;;;;;;;23.90;9.18;;;;;;;29.76;59.18;98951.59;5012788;28;20054;-94
2023/07/17 08:03:21;;;;;;;24.38;9.70;;;;;;;29.95;59.86;98947.75;5006390;28;20503;-96
2023/07/17 08:05:47;;;;;;;17.23;8.88;;;;;;;30.10;57.46;98958.00;5020750;28;20144;-95
2023/07/17 08:08:12;;;;;;;19.88;9.93;;;;;;;30.26;58.20;98954.47;5004288;28;20042;-94
2023/07/17 08:10:40;;;;;;;18.23;9.27;;;;;;;30.55;57.38;98966.16;5011854;28;20052;-94
2023/07/17 08:13:06;;;;;;;19.02;9.77;;;;;;;30.69;57.34;98951.81;5008311;28;20042;-95
2023/07/17 08:15:32;;;;;;;19.48;8.85;;;;;;;30.78;55.39;98961.78;5010477;28;20103;-93
2023/07/17 08:17:58;;;;;;;22.30;9.52;;;;;;;30.83;54.53;98962.13;5049482;28;20057;-95
2023/07/17 08:20:24;;;;;;;18.30;9.95;;;;;;;30.75;56.74;98953.88;5010870;28;20050;-94
2023/07/17 08:22:54;;;;;;;22.00;9.05;;;;;;;30.89;58.01;98975.25;5024096;28;20506;-94
2023/07/17 08:25:22;;;;;;;21.02;9.00;;;;;;;31.03;56.18;98965.47;5018467;28;20076;-93
2023/07/17 08:27:49;;;;;;;19.85;9.35;;;;;;;31.25;56.06;98980.50;5005649;28;20145;-94
2023/07/17 08:30:15;;;;;;;20.93;9.30;;;;;;;31.38;55.20;98970.88;5035685;28;20100;-95
2023/07/17 08:32:41;;;;;;;25.73;9.65;;;;;;;31.37;54.32;98961.78;5037288;28;20037;-94
2023/07/17 08:35:07;;;;;;;22.40;9.43;;;;;;;31.60;54.78;98978.50;5014991;28;20052;-94
2023/07/17 08:37:33;;;;;;;17.30;8.88;;;;;;;31.23;53.60;98995.41;5002466;28;20050;-95
2023/07/17 08:40:00;;;;;;;20.20;9.48;;;;;;;30.93;54.01;98973.03;5010770;28;20125;-95
2023/07/17 08:42:25;;;;;;;27.33;9.50;;;;;;;31.38;52.70;98996.50;5007794;28;20058;-95
2023/07/17 08:44:53;;;;;;;25.95;9.85;;;;;;;31.47;52.21;98978.16;5009557;28;20089;-95
2023/07/17 08:47:20;;;;;;;25.02;9.45;;;;;;;31.81;52.66;98993.59;5008036;28;20495;-95
2023/07/17 08:49:47;;;;;;;23.90;9.75;;;;;;;31.49;51.08;98981.59;5041597;28;20050;-94
2023/07/17 08:52:14;;;;;;;21.13;9.82;;;;;;;31.60;52.21;98977.63;5005607;28;20050;-95
2023/07/17 08:54:40;;;;;;;21.27;9.52;;;;;;;30.87;52.38;98974.53;5005247;28;20085;-94
2023/07/17 08:57:08;;;;;;;23.92;9.70;;;;;;;31.15;53.24;98977.03;5008765;28;20443;-95
2023/07/17 08:59:35;;;;;;;24.10;10.07;;;;;;;31.34;51.64;98992.34;5024299;28;20049;-95
2023/07/17 09:02:04;;;;;;;26.67;9.35;;;;;;;31.47;50.92;98981.75;5007101;28;20049;-96
2023/07/17 09:04:31;;;;;;;31.23;10.50;;;;;;;31.67;49.96;98971.28;5007119;28;20057;-96
2023/07/17 09:06:57;;;;;;;29.48;9.73;;;;;;;31.70;49.99;98983.81;5006158;28;20042;-95
2023/07/17 09:09:23;;;;;;;31.67;10.55;;;;;;;31.69;48.19;98982.97;5005151;28;20036;-95
2023/07/17 09:12:05;;;;;;;32.97;10.68;;;;;;;32.19;47.44;98971.94;5006977;28;20049;-94
2023/07/17 09:14:31;;;;;;;35.88;10.07;;;;;;;32.36;44.96;98959.88;5011149;28;20030;-94
2023/07/17 09:17:00;;;;;;;27.88;9.73;;;;;;;32.10;45.74;98957.34;5005133;28;20065;-95
2023/07/17 09:19:30;;;;;;;25.67;10.45;;;;;;;32.47;45.78;98958.63;5004879;28;20050;-94
2023/07/17 09:21:58;;;;;;;27.70;9.60;;;;;;;32.41;45.35;98976.69;5004734;28;20108;-94
2023/07/17 09:24:26;;;;;;;;;;;;;;;32.89;43.65;98984.97;5022413;28;20057;-94
2023/07/17 09:26:55;;;;;;;22.17;9.40;;;;;;;32.77;42.01;98986.41;5006019;28;20363;-95
2023/07/17 09:29:23;;;;;;;18.05;8.43;;;;;;;32.53;36.91;98971.69;5002439;28;20145;-96
2023/07/17 09:31:51;;;;;;;24.65;9.02;;;;;;;32.57;38.65;98985.97;5003034;28;20054;-94
2023/07/17 09:34:16;;;;;;;17.30;9.20;;;;;;;32.16;38.19;98972.28;5002726;28;20049;-94
2023/07/17 09:36:48;;;;;;;21.25;9.30;;;;;;;32.11;37.62;98975.56;5001521;28;20100;-94
2023/07/17 09:39:14;;;;;;;23.88;8.93;;;;;;;32.42;35.99;98975.69;5002366;28;20604;-95
2023/07/17 09:41:40;;;;;;;16.63;8.45;;;;;;;32.57;35.13;98985.97;5003470;28;20248;-95
2023/07/17 09:44:07;;;;;;;15.38;8.43;;;;;;;32.58;34.36;98983.03;5019129;28;20407;-96
2023/07/17 09:46:36;;;;;;;15.93;9.17;;;;;;;32.71;33.16;98976.97;5004932;28;20133;-95
2023/07/17 09:49:03;;;;;;;17.40;8.73;;;;;;;32.58;32.07;98976.69;5019945;28;20096;-96
2023/07/17 09:51:30;;;;;;;19.08;8.73;;;;;;;32.57;32.61;98980.47;5002138;28;20045;-94
2023/07/17 09:53:58;;;;;;;17.92;8.63;;;;;;;32.88;32.64;98981.38;5002575;28;20057;-94
2023/07/17 09:56:26;;;;;;;;;;;;;;;32.98;32.15;98996.81;5002627;28;20056;-95
2023/07/17 09:58:57;;;;;;;21.83;9.23;;;;;;;32.84;33.01;98981.91;5002780;28;19921;-95
2023/07/17 10:01:26;;;;;;;20.38;8.70;;;;;;;32.59;30.22;98986.66;5004963;28;20049;-96
2023/07/17 10:03:51;;;;;;;;;;;;;;;33.03;30.23;98992.50;5003533;28;20080;-95
2023/07/17 10:06:19;;;;;;;17.92;8.43;;;;;;;33.31;30.21;98969.94;5004078;28;19917;-95
2023/07/17 10:08:46;;;;;;;14.68;8.63;;;;;;;33.63;30.51;98962.50;5007249;28;20406;-94
2023/07/17 10:11:18;;;;;;;18.77;8.55;;;;;;;34.10;27.44;98983.47;5021863;28;20080;-94
2023/07/17 10:13:46;;;;;;;18.13;8.88;;;;;;;34.35;28.91;98982.22;5009396;28;20046;-95
2023/07/17 10:16:15;;;;;;;20.40;9.38;;;;;;;34.26;27.11;98986.06;5006130;28;20062;-95
2023/07/17 10:18:48;;;;;;;16.52;8.38;;;;;;;34.38;27.23;98964.41;5021479;28;20080;-94
2023/07/17 10:21:16;;;;;;;17.73;9.20;;;;;;;34.56;27.28;98970.38;5022417;28;20061;-95
2023/07/17 10:23:42;;;;;;;19.13;8.63;;;;;;;34.52;28.67;98955.25;5019250;28;20045;-95
2023/07/17 10:26:09;;;;;;;19.10;9.32;;;;;;;34.83;25.83;98975.44;5007439;28;20071;-94
2023/07/17 10:28:37;;;;;;;15.35;9.10;;;;;;;34.85;25.47;98965.94;5015728;28;20069;-94
2023/07/17 10:31:09;;;;;;;17.63;8.93;;;;;;;34.63;24.62;98956.69;5001217;28;20372;-95
2023/07/17 10:33:39;;;;;;;13.45;7.88;;;;;;;34.58;25.82;98942.59;5005353;28;20117;-94
2023/07/17 10:36:05;;;;;;;18.23;7.93;;;;;;;34.53;27.46;98948.69;5002672;28;20454;-95
2023/07/17 10:38:34;;;;;;;14.68;8.52;;;;;;;34.56;27.18;98937.25;5002649;28;20140;-96
2023/07/17 10:41:02;;;;;;;13.07;7.65;;;;;;;34.53;27.34;98948.69;5004011;28;20049;-95
2023/07/17 10:43:28;;;;;;;18.55;7.90;;;;;;;34.60;27.08;98956.22;5004177;28;20025;-95
2023/07/17 10:45:56;;;;;;;15.57;7.47;;;;;;;34.60;28.00;98946.00;5008353;28;20051;-96
2023/07/17 10:48:24;;;;;;;15.20;8.13;;;;;;;34.73;28.11;98950.88;5019550;28;20060;-96
2023/07/17 10:50:52;;;;;;;15.18;7.97;;;;;;;34.47;28.00;98952.22;5017746;28;20060;-94
2023/07/17 10:53:19;;;;;;;17.23;7.72;;;;;;;34.55;28.48;98954.88;5019248;28;20046;-95
2023/07/17 10:55:46;;;;;;;13.10;7.43;;;;;;;34.81;29.46;98964.59;5018868;28;20085;-94
2023/07/17 10:58:12;;;;;;;17.23;7.63;;;;;;;34.87;29.90;98949.13;5017456;28;20073;-95
2023/07/17 11:00:41;;;;;;;17.23;8.00;;;;;;;34.88;31.20;98962.78;5003955;28;20050;-95
2023/07/17 11:03:09;;;;;;;20.00;7.88;;;;;;;34.96;30.03;98945.19;5021302;28;20046;-96
2023/07/17 11:05:38;;;;;;;15.63;7.45;;;;;;;34.92;30.30;98939.22;5010382;28;20073;-96
2023/07/17 11:08:05;;;;;;;16.30;8.00;;;;;;;35.13;30.40;98952.28;5006822;28;20070;-93
2023/07/17 11:10:31;;;;;;;17.85;7.75;;;;;;;35.05;30.69;98944.06;5012093;28;20061;-95
2023/07/17 11:13:01;;;;;;;16.35;8.23;;;;;;;35.09;30.85;98931.56;5012003;28;20042;-95
2023/07/17 11:15:29;;;;;;;18.17;7.90;;;;;;;35.14;29.64;98928.25;5010385;28;20076;-95
2023/07/17 11:17:57;;;;;;;;;;;;;;;35.06;29.57;98953.19;5042407;28;20049;-95
2023/07/17 11:20:25;;;;;;;15.05;7.68;;;;;;;35.05;30.53;98930.25;5014414;28;19999;-94
2023/07/17 11:22:52;;;;;;;12.95;7.47;;;;;;;34.95;30.74;98933.28;5027235;28;20049;-94
2023/07/17 11:25:20;;;;;;;14.02;7.55;;;;;;;35.08;29.98;98942.81;5019873;28;20046;-94